sensor_id;sensor_type;location;lat;lon;timestamp;P1;durP1;ratioP1;P2;durP2;ratioP2
17814;SDS011;9031;50.974;11.330;2023-04-15T00:01:23;5.80;;;5.30;;
17814;SDS011;9031;50.974;11.330;2023-04-15T00:03:52;6.13;;;5.60;;
17814;SDS011;9031;50.974;11.330;2023-04-15T00:06:18;5.80;;;5.20;;
17814;SDS011;9031;50.974;11.330;2023-04-15T00:08:45;6.03;;;5.53;;
17814;SDS011;9031;50.974;11.330;2023-04-15T00:11:11;5.87;;;5.37;;
17814;SDS011;9031;50.974;11.330;2023-04-15T00:13:37;6.00;;;5.40;;
17814;SDS011;9031;50.974;11.330;2023-04-15T00:16:03;6.00;;;5.50;;
17814;SDS011;9031;50.974;11.330;2023-04-15T00:18:30;5.60;;;5.10;;
17814;SDS011;9031;50.974;11.330;2023-04-15T00:20:56;6.00;;;5.50;;
17814;SDS011;9031;50.974;11.330;2023-04-15T00:23:21;5.60;;;5.10;;
17814;SDS011;9031;50.974;11.330;2023-04-15T00:25:47;5.97;;;5.37;;
17814;SDS011;9031;50.974;11.330;2023-04-15T00:28:12;5.60;;;4.93;;
17814;SDS011;9031;50.974;11.330;2023-04-15T00:30:38;6.20;;;5.60;;
17814;SDS011;9031;50.974;11.330;2023-04-15T00:33:03;6.60;;;5.00;;
17814;SDS011;9031;50.974;11.330;2023-04-15T00:35:29;6.13;;;5.53;;
17814;SDS011;9031;50.974;11.330;2023-04-15T00:37:56;5.80;;;5.30;;
17814;SDS011;9031;50.974;11.330;2023-04-15T00:40:23;6.07;;;5.47;;
17814;SDS011;9031;50.974;11.330;2023-04-15T00:42:49;6.70;;;6.10;;
17814;SDS011;9031;50.974;11.330;2023-04-15T00:45:14;6.70;;;6.00;;
17814;SDS011;9031;50.974;11.330;2023-04-15T00:47:40;6.57;;;5.97;;
17814;SDS011;9031;50.974;11.330;2023-04-15T00:50:07;6.37;;;5.80;;
17814;SDS011;9031;50.974;11.330;2023-04-15T00:52:33;6.17;;;5.67;;
17814;SDS011;9031;50.974;11.330;2023-04-15T00:54:59;6.90;;;6.23;;
17814;SDS011;9031;50.974;11.330;2023-04-15T00:57:25;6.17;;;5.63;;
17814;SDS011;9031;50.974;11.330;2023-04-15T00:59:51;6.37;;;5.77;;
17814;SDS011;9031;50.974;11.330;2023-04-15T01:02:17;6.50;;;6.00;;
17814;SDS011;9031;50.974;11.330;2023-04-15T01:04:43;6.13;;;5.63;;
17814;SDS011;9031;50.974;11.330;2023-04-15T01:07:09;5.47;;;4.97;;
17814;SDS011;9031;50.974;11.330;2023-04-15T01:09:34;5.77;;;5.27;;
17814;SDS011;9031;50.974;11.330;2023-04-15T01:12:00;5.87;;;5.37;;
17814;SDS011;9031;50.974;11.330;2023-04-15T01:14:26;5.53;;;5.10;;
17814;SDS011;9031;50.974;11.330;2023-04-15T01:16:52;6.70;;;5.20;;
17814;SDS011;9031;50.974;11.330;2023-04-15T01:19:18;6.10;;;5.33;;
17814;SDS011;9031;50.974;11.330;2023-04-15T01:21:44;6.17;;;5.47;;
17814;SDS011;9031;50.974;11.330;2023-04-15T01:24:10;5.50;;;5.00;;
17814;SDS011;9031;50.974;11.330;2023-04-15T01:26:37;5.93;;;5.27;;
17814;SDS011;9031;50.974;11.330;2023-04-15T01:29:03;5.87;;;5.37;;
17814;SDS011;9031;50.974;11.330;2023-04-15T01:31:28;5.43;;;5.03;;
17814;SDS011;9031;50.974;11.330;2023-04-15T01:33:54;5.50;;;5.00;;
17814;SDS011;9031;50.974;11.330;2023-04-15T01:36:20;5.23;;;4.70;;
17814;SDS011;9031;50.974;11.330;2023-04-15T01:38:45;5.07;;;4.57;;
17814;SDS011;9031;50.974;11.330;2023-04-15T01:41:12;5.30;;;4.80;;
17814;SDS011;9031;50.974;11.330;2023-04-15T01:43:38;5.50;;;5.00;;
17814;SDS011;9031;50.974;11.330;2023-04-15T01:46:04;5.63;;;5.07;;
17814;SDS011;9031;50.974;11.330;2023-04-15T01:48:30;6.30;;;5.40;;
17814;SDS011;9031;50.974;11.330;2023-04-15T01:50:56;6.30;;;5.37;;
17814;SDS011;9031;50.974;11.330;2023-04-15T01:53:23;6.50;;;5.90;;
17814;SDS011;9031;50.974;11.330;2023-04-15T01:55:49;5.97;;;5.37;;
17814;SDS011;9031;50.974;11.330;2023-04-15T01:58:16;6.90;;;6.07;;
17814;SDS011;9031;50.974;11.330;2023-04-15T02:00:42;5.80;;;5.20;;
17814;SDS011;9031;50.974;11.330;2023-04-15T02:03:07;7.97;;;6.13;;
17814;SDS011;9031;50.974;11.330;2023-04-15T02:05:33;6.23;;;5.63;;
17814;SDS011;9031;50.974;11.330;2023-04-15T02:07:59;6.13;;;5.63;;
17814;SDS011;9031;50.974;11.330;2023-04-15T02:10:24;6.53;;;5.93;;
17814;SDS011;9031;50.974;11.330;2023-04-15T02:12:51;6.27;;;5.77;;
17814;SDS011;9031;50.974;11.330;2023-04-15T02:15:16;6.87;;;6.07;;
17814;SDS011;9031;50.974;11.330;2023-04-15T02:17:42;6.80;;;6.20;;
17814;SDS011;9031;50.974;11.330;2023-04-15T02:20:09;6.60;;;6.00;;
17814;SDS011;9031;50.974;11.330;2023-04-15T02:22:36;6.30;;;5.77;;
17814;SDS011;9031;50.974;11.330;2023-04-15T02:25:01;6.53;;;5.93;;
17814;SDS011;9031;50.974;11.330;2023-04-15T02:27:27;6.60;;;5.90;;
17814;SDS011;9031;50.974;11.330;2023-04-15T02:29:53;7.27;;;6.50;;
17814;SDS011;9031;50.974;11.330;2023-04-15T02:32:18;6.67;;;6.07;;
17814;SDS011;9031;50.974;11.330;2023-04-15T02:34:45;7.40;;;6.70;;
17814;SDS011;9031;50.974;11.330;2023-04-15T02:37:11;7.43;;;6.73;;
17814;SDS011;9031;50.974;11.330;2023-04-15T02:39:38;6.63;;;6.03;;
17814;SDS011;9031;50.974;11.330;2023-04-15T02:42:04;7.23;;;6.60;;
17814;SDS011;9031;50.974;11.330;2023-04-15T02:44:30;7.60;;;6.90;;
17814;SDS011;9031;50.974;11.330;2023-04-15T02:46:57;7.60;;;6.67;;
17814;SDS011;9031;50.974;11.330;2023-04-15T02:49:23;7.47;;;6.77;;
17814;SDS011;9031;50.974;11.330;2023-04-15T02:51:49;6.80;;;6.13;;
17814;SDS011;9031;50.974;11.330;2023-04-15T02:54:18;8.10;;;7.30;;
17814;SDS011;9031;50.974;11.330;2023-04-15T02:56:44;7.50;;;6.80;;
17814;SDS011;9031;50.974;11.330;2023-04-15T02:59:10;7.63;;;6.93;;
17814;SDS011;9031;50.974;11.330;2023-04-15T03:01:36;7.77;;;7.03;;
17814;SDS011;9031;50.974;11.330;2023-04-15T03:04:02;7.73;;;7.03;;
17814;SDS011;9031;50.974;11.330;2023-04-15T03:06:27;7.47;;;6.63;;
17814;SDS011;9031;50.974;11.330;2023-04-15T03:08:53;7.87;;;7.07;;
17814;SDS011;9031;50.974;11.330;2023-04-15T03:11:19;8.13;;;7.30;;
17814;SDS011;9031;50.974;11.330;2023-04-15T03:13:45;8.63;;;7.83;;
17814;SDS011;9031;50.974;11.330;2023-04-15T03:16:11;7.40;;;6.70;;
17814;SDS011;9031;50.974;11.330;2023-04-15T03:18:36;7.83;;;7.00;;
17814;SDS011;9031;50.974;11.330;2023-04-15T03:21:02;7.87;;;7.07;;
17814;SDS011;9031;50.974;11.330;2023-04-15T03:23:29;8.30;;;7.50;;
17814;SDS011;9031;50.974;11.330;2023-04-15T03:25:55;9.20;;;7.40;;
17814;SDS011;9031;50.974;11.330;2023-04-15T03:28:21;8.83;;;7.83;;
17814;SDS011;9031;50.974;11.330;2023-04-15T03:30:47;8.37;;;7.57;;
17814;SDS011;9031;50.974;11.330;2023-04-15T03:33:13;8.57;;;7.77;;
17814;SDS011;9031;50.974;11.330;2023-04-15T03:35:38;9.60;;;8.37;;
17814;SDS011;9031;50.974;11.330;2023-04-15T03:38:04;9.43;;;8.53;;
17814;SDS011;9031;50.974;11.330;2023-04-15T03:40:29;10.23;;;8.60;;
17814;SDS011;9031;50.974;11.330;2023-04-15T03:42:55;9.53;;;8.47;;
17814;SDS011;9031;50.974;11.330;2023-04-15T03:45:20;9.57;;;8.67;;
17814;SDS011;9031;50.974;11.330;2023-04-15T03:47:46;11.13;;;8.90;;
17814;SDS011;9031;50.974;11.330;2023-04-15T03:50:11;9.80;;;8.90;;
17814;SDS011;9031;50.974;11.330;2023-04-15T03:52:37;10.60;;;9.43;;
17814;SDS011;9031;50.974;11.330;2023-04-15T03:55:02;11.33;;;10.27;;
17814;SDS011;9031;50.974;11.330;2023-04-15T03:57:28;11.97;;;10.77;;
17814;SDS011;9031;50.974;11.330;2023-04-15T03:59:54;11.73;;;10.57;;
17814;SDS011;9031;50.974;11.330;2023-04-15T04:02:19;11.67;;;10.57;;
17814;SDS011;9031;50.974;11.330;2023-04-15T04:04:45;13.57;;;12.17;;
17814;SDS011;9031;50.974;11.330;2023-04-15T04:07:14;13.20;;;11.80;;
17814;SDS011;9031;50.974;11.330;2023-04-15T04:09:40;13.17;;;11.73;;
17814;SDS011;9031;50.974;11.330;2023-04-15T04:12:06;13.17;;;11.77;;
17814;SDS011;9031;50.974;11.330;2023-04-15T04:14:32;13.03;;;11.83;;
17814;SDS011;9031;50.974;11.330;2023-04-15T04:16:57;14.40;;;12.37;;
17814;SDS011;9031;50.974;11.330;2023-04-15T04:19:23;14.07;;;12.23;;
17814;SDS011;9031;50.974;11.330;2023-04-15T04:21:48;14.90;;;13.40;;
17814;SDS011;9031;50.974;11.330;2023-04-15T04:24:14;13.53;;;12.23;;
17814;SDS011;9031;50.974;11.330;2023-04-15T04:26:39;14.07;;;12.50;;
17814;SDS011;9031;50.974;11.330;2023-04-15T04:29:05;14.37;;;12.93;;
17814;SDS011;9031;50.974;11.330;2023-04-15T04:31:31;14.70;;;13.10;;
17814;SDS011;9031;50.974;11.330;2023-04-15T04:33:56;13.37;;;11.97;;
17814;SDS011;9031;50.974;11.330;2023-04-15T04:36:22;14.07;;;12.57;;
17814;SDS011;9031;50.974;11.330;2023-04-15T04:38:47;13.63;;;12.33;;
17814;SDS011;9031;50.974;11.330;2023-04-15T04:41:13;14.37;;;12.87;;
17814;SDS011;9031;50.974;11.330;2023-04-15T04:43:38;14.43;;;12.93;;
17814;SDS011;9031;50.974;11.330;2023-04-15T04:46:04;13.67;;;12.07;;
17814;SDS011;9031;50.974;11.330;2023-04-15T04:48:29;14.80;;;11.87;;
17814;SDS011;9031;50.974;11.330;2023-04-15T04:50:55;13.63;;;12.27;;
17814;SDS011;9031;50.974;11.330;2023-04-15T04:53:20;14.00;;;12.60;;
17814;SDS011;9031;50.974;11.330;2023-04-15T04:55:46;14.63;;;13.23;;
17814;SDS011;9031;50.974;11.330;2023-04-15T04:58:11;15.10;;;13.53;;
17814;SDS011;9031;50.974;11.330;2023-04-15T05:00:39;14.27;;;12.77;;
17814;SDS011;9031;50.974;11.330;2023-04-15T05:03:05;16.23;;;14.53;;
17814;SDS011;9031;50.974;11.330;2023-04-15T05:05:30;15.57;;;14.03;;
17814;SDS011;9031;50.974;11.330;2023-04-15T05:07:56;17.47;;;15.70;;
17814;SDS011;9031;50.974;11.330;2023-04-15T05:10:21;19.77;;;15.60;;
17814;SDS011;9031;50.974;11.330;2023-04-15T05:12:47;17.73;;;15.83;;
17814;SDS011;9031;50.974;11.330;2023-04-15T05:15:13;21.77;;;18.23;;
17814;SDS011;9031;50.974;11.330;2023-04-15T05:17:39;21.07;;;18.40;;
17814;SDS011;9031;50.974;11.330;2023-04-15T05:20:04;24.00;;;20.17;;
17814;SDS011;9031;50.974;11.330;2023-04-15T05:22:30;24.33;;;20.13;;
17814;SDS011;9031;50.974;11.330;2023-04-15T05:24:56;25.90;;;21.87;;
17814;SDS011;9031;50.974;11.330;2023-04-15T05:27:21;25.23;;;21.57;;
17814;SDS011;9031;50.974;11.330;2023-04-15T05:29:48;25.60;;;22.07;;
17814;SDS011;9031;50.974;11.330;2023-04-15T05:32:13;27.67;;;21.90;;
17814;SDS011;9031;50.974;11.330;2023-04-15T05:34:39;29.00;;;23.87;;
17814;SDS011;9031;50.974;11.330;2023-04-15T05:37:04;29.43;;;23.47;;
17814;SDS011;9031;50.974;11.330;2023-04-15T05:39:30;28.83;;;23.57;;
17814;SDS011;9031;50.974;11.330;2023-04-15T05:41:56;30.10;;;24.67;;
17814;SDS011;9031;50.974;11.330;2023-04-15T05:44:22;31.60;;;25.47;;
17814;SDS011;9031;50.974;11.330;2023-04-15T05:46:47;29.33;;;26.07;;
17814;SDS011;9031;50.974;11.330;2023-04-15T05:49:13;30.70;;;25.93;;
17814;SDS011;9031;50.974;11.330;2023-04-15T05:51:38;33.00;;;27.40;;
17814;SDS011;9031;50.974;11.330;2023-04-15T05:54:04;33.33;;;25.27;;
17814;SDS011;9031;50.974;11.330;2023-04-15T05:56:30;29.50;;;25.17;;
17814;SDS011;9031;50.974;11.330;2023-04-15T05:58:56;30.90;;;24.43;;
17814;SDS011;9031;50.974;11.330;2023-04-15T06:01:21;29.53;;;24.90;;
17814;SDS011;9031;50.974;11.330;2023-04-15T06:03:47;30.93;;;26.33;;
17814;SDS011;9031;50.974;11.330;2023-04-15T06:06:13;26.50;;;22.50;;
17814;SDS011;9031;50.974;11.330;2023-04-15T06:08:39;25.93;;;22.87;;
17814;SDS011;9031;50.974;11.330;2023-04-15T06:11:05;26.03;;;22.90;;
17814;SDS011;9031;50.974;11.330;2023-04-15T06:13:31;23.97;;;21.10;;
17814;SDS011;9031;50.974;11.330;2023-04-15T06:15:56;24.70;;;21.03;;
17814;SDS011;9031;50.974;11.330;2023-04-15T06:18:22;24.30;;;20.47;;
17814;SDS011;9031;50.974;11.330;2023-04-15T06:20:47;23.20;;;19.73;;
17814;SDS011;9031;50.974;11.330;2023-04-15T06:23:13;22.33;;;18.63;;
17814;SDS011;9031;50.974;11.330;2023-04-15T06:25:39;21.73;;;18.67;;
17814;SDS011;9031;50.974;11.330;2023-04-15T06:28:05;20.67;;;17.90;;
17814;SDS011;9031;50.974;11.330;2023-04-15T06:30:30;18.53;;;16.57;;
17814;SDS011;9031;50.974;11.330;2023-04-15T06:32:56;17.60;;;15.80;;
17814;SDS011;9031;50.974;11.330;2023-04-15T06:35:21;16.87;;;15.10;;
17814;SDS011;9031;50.974;11.330;2023-04-15T06:37:47;17.53;;;15.17;;
17814;SDS011;9031;50.974;11.330;2023-04-15T06:40:12;16.27;;;13.53;;
17814;SDS011;9031;50.974;11.330;2023-04-15T06:42:38;16.23;;;14.53;;
17814;SDS011;9031;50.974;11.330;2023-04-15T06:45:04;15.60;;;12.80;;
17814;SDS011;9031;50.974;11.330;2023-04-15T06:47:30;14.20;;;12.80;;
17814;SDS011;9031;50.974;11.330;2023-04-15T06:49:56;15.17;;;13.67;;
17814;SDS011;9031;50.974;11.330;2023-04-15T06:52:21;14.77;;;12.80;;
17814;SDS011;9031;50.974;11.330;2023-04-15T06:54:47;14.03;;;12.60;;
17814;SDS011;9031;50.974;11.330;2023-04-15T06:57:12;12.93;;;11.63;;
17814;SDS011;9031;50.974;11.330;2023-04-15T06:59:39;13.13;;;11.83;;
17814;SDS011;9031;50.974;11.330;2023-04-15T07:02:04;13.10;;;11.50;;
17814;SDS011;9031;50.974;11.330;2023-04-15T07:04:31;12.13;;;10.90;;
17814;SDS011;9031;50.974;11.330;2023-04-15T07:06:57;13.40;;;11.00;;
17814;SDS011;9031;50.974;11.330;2023-04-15T07:09:24;12.20;;;10.23;;
17814;SDS011;9031;50.974;11.330;2023-04-15T07:11:50;11.73;;;10.53;;
17814;SDS011;9031;50.974;11.330;2023-04-15T07:14:16;12.67;;;11.10;;
17814;SDS011;9031;50.974;11.330;2023-04-15T07:16:42;12.27;;;10.13;;
17814;SDS011;9031;50.974;11.330;2023-04-15T07:19:07;11.10;;;10.03;;
17814;SDS011;9031;50.974;11.330;2023-04-15T07:21:33;11.53;;;10.43;;
17814;SDS011;9031;50.974;11.330;2023-04-15T07:23:58;11.27;;;10.07;;
17814;SDS011;9031;50.974;11.330;2023-04-15T07:26:24;11.73;;;10.53;;
17814;SDS011;9031;50.974;11.330;2023-04-15T07:28:49;10.87;;;9.70;;
17814;SDS011;9031;50.974;11.330;2023-04-15T07:31:15;9.77;;;8.77;;
17814;SDS011;9031;50.974;11.330;2023-04-15T07:33:41;10.53;;;9.43;;
17814;SDS011;9031;50.974;11.330;2023-04-15T07:36:06;11.00;;;9.07;;
17814;SDS011;9031;50.974;11.330;2023-04-15T07:38:32;9.47;;;8.47;;
17814;SDS011;9031;50.974;11.330;2023-04-15T07:40:58;10.87;;;9.77;;
17814;SDS011;9031;50.974;11.330;2023-04-15T07:43:23;10.50;;;9.23;;
17814;SDS011;9031;50.974;11.330;2023-04-15T07:45:49;9.50;;;8.50;;
17814;SDS011;9031;50.974;11.330;2023-04-15T07:48:14;10.23;;;9.10;;
17814;SDS011;9031;50.974;11.330;2023-04-15T07:50:40;9.73;;;8.67;;
17814;SDS011;9031;50.974;11.330;2023-04-15T07:53:06;10.67;;;8.70;;
17814;SDS011;9031;50.974;11.330;2023-04-15T07:55:31;9.67;;;8.60;;
17814;SDS011;9031;50.974;11.330;2023-04-15T07:57:57;9.43;;;8.43;;
17814;SDS011;9031;50.974;11.330;2023-04-15T08:00:22;11.60;;;9.20;;
17814;SDS011;9031;50.974;11.330;2023-04-15T08:02:48;10.23;;;8.20;;
17814;SDS011;9031;50.974;11.330;2023-04-15T08:05:14;10.63;;;8.60;;
17814;SDS011;9031;50.974;11.330;2023-04-15T08:07:39;8.87;;;7.97;;
17814;SDS011;9031;50.974;11.330;2023-04-15T08:10:05;9.70;;;8.53;;
17814;SDS011;9031;50.974;11.330;2023-04-15T08:12:31;8.90;;;7.63;;
17814;SDS011;9031;50.974;11.330;2023-04-15T08:14:57;10.03;;;8.17;;
17814;SDS011;9031;50.974;11.330;2023-04-15T08:17:23;8.67;;;7.77;;
17814;SDS011;9031;50.974;11.330;2023-04-15T08:19:48;8.90;;;8.00;;
17814;SDS011;9031;50.974;11.330;2023-04-15T08:22:14;8.00;;;7.13;;
17814;SDS011;9031;50.974;11.330;2023-04-15T08:24:40;8.33;;;7.43;;
17814;SDS011;9031;50.974;11.330;2023-04-15T08:27:05;8.60;;;7.10;;
17814;SDS011;9031;50.974;11.330;2023-04-15T08:29:31;7.60;;;6.80;;
17814;SDS011;9031;50.974;11.330;2023-04-15T08:31:58;6.57;;;5.97;;
17814;SDS011;9031;50.974;11.330;2023-04-15T08:34:25;7.13;;;6.43;;
17814;SDS011;9031;50.974;11.330;2023-04-15T08:36:51;7.47;;;6.13;;
17814;SDS011;9031;50.974;11.330;2023-04-15T08:39:16;7.37;;;6.67;;
17814;SDS011;9031;50.974;11.330;2023-04-15T08:41:45;6.23;;;5.63;;
17814;SDS011;9031;50.974;11.330;2023-04-15T08:44:28;7.37;;;6.10;;
17814;SDS011;9031;50.974;11.330;2023-04-15T08:46:56;7.57;;;5.90;;
17814;SDS011;9031;50.974;11.330;2023-04-15T08:49:25;6.83;;;6.13;;
17814;SDS011;9031;50.974;11.330;2023-04-15T08:51:52;5.87;;;5.27;;
17814;SDS011;9031;50.974;11.330;2023-04-15T08:54:18;6.67;;;5.83;;
17814;SDS011;9031;50.974;11.330;2023-04-15T08:56:44;8.07;;;6.20;;
17814;SDS011;9031;50.974;11.330;2023-04-15T08:59:10;7.23;;;5.63;;
17814;SDS011;9031;50.974;11.330;2023-04-15T09:01:36;5.43;;;4.93;;
17814;SDS011;9031;50.974;11.330;2023-04-15T09:04:02;6.37;;;5.77;;
17814;SDS011;9031;50.974;11.330;2023-04-15T09:06:30;5.40;;;4.90;;
17814;SDS011;9031;50.974;11.330;2023-04-15T09:08:56;5.83;;;5.33;;
17814;SDS011;9031;50.974;11.330;2023-04-15T09:11:21;6.17;;;5.00;;
17814;SDS011;9031;50.974;11.330;2023-04-15T09:13:47;5.73;;;5.23;;
17814;SDS011;9031;50.974;11.330;2023-04-15T09:16:13;5.83;;;5.20;;
17814;SDS011;9031;50.974;11.330;2023-04-15T09:18:39;6.60;;;5.90;;
17814;SDS011;9031;50.974;11.330;2023-04-15T09:21:05;5.70;;;5.10;;
17814;SDS011;9031;50.974;11.330;2023-04-15T09:23:35;7.00;;;5.30;;
17814;SDS011;9031;50.974;11.330;2023-04-15T09:26:03;5.97;;;5.37;;
17814;SDS011;9031;50.974;11.330;2023-04-15T09:28:29;6.57;;;5.67;;
17814;SDS011;9031;50.974;11.330;2023-04-15T09:30:59;6.33;;;5.60;;
17814;SDS011;9031;50.974;11.330;2023-04-15T09:33:26;6.20;;;5.33;;
17814;SDS011;9031;50.974;11.330;2023-04-15T09:35:59;5.57;;;5.07;;
17814;SDS011;9031;50.974;11.330;2023-04-15T09:38:26;5.47;;;4.83;;
17814;SDS011;9031;50.974;11.330;2023-04-15T09:40:52;6.63;;;5.87;;
17814;SDS011;9031;50.974;11.330;2023-04-15T09:43:18;6.03;;;5.47;;
17814;SDS011;9031;50.974;11.330;2023-04-15T09:45:48;6.53;;;5.83;;
17814;SDS011;9031;50.974;11.330;2023-04-15T09:48:16;6.03;;;5.13;;
17814;SDS011;9031;50.974;11.330;2023-04-15T09:50:47;5.70;;;5.20;;
17814;SDS011;9031;50.974;11.330;2023-04-15T09:53:16;5.93;;;5.33;;
17814;SDS011;9031;50.974;11.330;2023-04-15T09:55:44;6.23;;;5.60;;
17814;SDS011;9031;50.974;11.330;2023-04-15T09:58:20;5.83;;;5.33;;
17814;SDS011;9031;50.974;11.330;2023-04-15T10:00:51;6.20;;;5.57;;
17814;SDS011;9031;50.974;11.330;2023-04-15T10:03:24;5.97;;;5.47;;
17814;SDS011;9031;50.974;11.330;2023-04-15T10:05:51;6.13;;;5.60;;
17814;SDS011;9031;50.974;11.330;2023-04-15T10:08:20;5.90;;;5.33;;
17814;SDS011;9031;50.974;11.330;2023-04-15T10:10:47;5.23;;;4.73;;
17814;SDS011;9031;50.974;11.330;2023-04-15T10:13:13;5.33;;;4.83;;
17814;SDS011;9031;50.974;11.330;2023-04-15T10:16:05;7.70;;;6.43;;
17814;SDS011;9031;50.974;11.330;2023-04-15T10:18:35;4.43;;;4.03;;
17814;SDS011;9031;50.974;11.330;2023-04-15T10:21:04;5.00;;;4.50;;
17814;SDS011;9031;50.974;11.330;2023-04-15T10:23:31;14.80;;;13.40;;
17814;SDS011;9031;50.974;11.330;2023-04-15T10:25:57;4.07;;;3.67;;
17814;SDS011;9031;50.974;11.330;2023-04-15T10:28:23;5.17;;;4.67;;
17814;SDS011;9031;50.974;11.330;2023-04-15T10:30:50;5.33;;;4.83;;
17814;SDS011;9031;50.974;11.330;2023-04-15T10:33:18;4.13;;;3.73;;
17814;SDS011;9031;50.974;11.330;2023-04-15T10:35:45;3.93;;;3.57;;
17814;SDS011;9031;50.974;11.330;2023-04-15T10:38:33;4.57;;;4.17;;
17814;SDS011;9031;50.974;11.330;2023-04-15T10:41:16;4.00;;;3.70;;
17814;SDS011;9031;50.974;11.330;2023-04-15T10:46:23;4.80;;;4.40;;
17814;SDS011;9031;50.974;11.330;2023-04-15T10:49:05;4.60;;;4.20;;
17814;SDS011;9031;50.974;11.330;2023-04-15T10:51:36;5.03;;;4.53;;
17814;SDS011;9031;50.974;11.330;2023-04-15T10:54:13;3.90;;;3.60;;
17814;SDS011;9031;50.974;11.330;2023-04-15T10:56:46;4.43;;;4.03;;
17814;SDS011;9031;50.974;11.330;2023-04-15T10:59:16;4.70;;;3.97;;
17814;SDS011;9031;50.974;11.330;2023-04-15T11:01:52;4.70;;;4.30;;
17814;SDS011;9031;50.974;11.330;2023-04-15T11:07:40;4.50;;;4.10;;
17814;SDS011;9031;50.974;11.330;2023-04-15T11:12:42;5.47;;;4.80;;
17814;SDS011;9031;50.974;11.330;2023-04-15T11:20:35;4.33;;;3.93;;
17814;SDS011;9031;50.974;11.330;2023-04-15T11:23:02;5.03;;;4.37;;
17814;SDS011;9031;50.974;11.330;2023-04-15T11:25:29;5.83;;;4.17;;
17814;SDS011;9031;50.974;11.330;2023-04-15T11:27:56;4.03;;;3.73;;
17814;SDS011;9031;50.974;11.330;2023-04-15T11:30:23;4.37;;;3.80;;
17814;SDS011;9031;50.974;11.330;2023-04-15T11:32:51;4.67;;;4.17;;
17814;SDS011;9031;50.974;11.330;2023-04-15T11:35:17;5.47;;;4.10;;
17814;SDS011;9031;50.974;11.330;2023-04-15T11:37:44;4.73;;;4.07;;
17814;SDS011;9031;50.974;11.330;2023-04-15T11:40:10;5.90;;;4.70;;
17814;SDS011;9031;50.974;11.330;2023-04-15T11:42:37;6.33;;;4.50;;
17814;SDS011;9031;50.974;11.330;2023-04-15T11:45:09;8.43;;;5.30;;
17814;SDS011;9031;50.974;11.330;2023-04-15T11:47:36;7.67;;;4.80;;
17814;SDS011;9031;50.974;11.330;2023-04-15T11:50:16;4.63;;;4.17;;
17814;SDS011;9031;50.974;11.330;2023-04-15T11:55:19;4.20;;;3.80;;
17814;SDS011;9031;50.974;11.330;2023-04-15T11:57:45;3.60;;;3.30;;
17814;SDS011;9031;50.974;11.330;2023-04-15T12:00:10;3.63;;;3.33;;
17814;SDS011;9031;50.974;11.330;2023-04-15T12:02:38;3.03;;;2.80;;
17814;SDS011;9031;50.974;11.330;2023-04-15T12:05:04;3.20;;;2.90;;
17814;SDS011;9031;50.974;11.330;2023-04-15T12:07:30;3.43;;;3.13;;
17814;SDS011;9031;50.974;11.330;2023-04-15T12:09:55;3.50;;;3.20;;
17814;SDS011;9031;50.974;11.330;2023-04-15T12:12:25;3.10;;;2.90;;
17814;SDS011;9031;50.974;11.330;2023-04-15T12:14:52;2.90;;;2.70;;
17814;SDS011;9031;50.974;11.330;2023-04-15T12:17:17;3.13;;;2.87;;
17814;SDS011;9031;50.974;11.330;2023-04-15T12:19:43;2.77;;;2.57;;
17814;SDS011;9031;50.974;11.330;2023-04-15T12:22:13;2.83;;;2.63;;
17814;SDS011;9031;50.974;11.330;2023-04-15T12:24:41;2.97;;;2.77;;
17814;SDS011;9031;50.974;11.330;2023-04-15T12:27:11;3.73;;;3.43;;
17814;SDS011;9031;50.974;11.330;2023-04-15T12:29:38;3.10;;;2.80;;
17814;SDS011;9031;50.974;11.330;2023-04-15T12:32:05;3.03;;;2.80;;
17814;SDS011;9031;50.974;11.330;2023-04-15T12:34:33;2.70;;;2.50;;
17814;SDS011;9031;50.974;11.330;2023-04-15T12:37:00;2.83;;;2.63;;
17814;SDS011;9031;50.974;11.330;2023-04-15T12:39:28;3.20;;;2.90;;
17814;SDS011;9031;50.974;11.330;2023-04-15T12:41:55;2.87;;;2.67;;
17814;SDS011;9031;50.974;11.330;2023-04-15T12:44:23;2.87;;;2.67;;
17814;SDS011;9031;50.974;11.330;2023-04-15T12:46:49;2.80;;;2.60;;
17814;SDS011;9031;50.974;11.330;2023-04-15T12:49:17;3.00;;;2.70;;
17814;SDS011;9031;50.974;11.330;2023-04-15T12:51:49;13.73;;;12.30;;
17814;SDS011;9031;50.974;11.330;2023-04-15T12:54:17;2.60;;;2.40;;
17814;SDS011;9031;50.974;11.330;2023-04-15T12:56:43;13.87;;;10.70;;
17814;SDS011;9031;50.974;11.330;2023-04-15T12:59:10;2.77;;;2.57;;
17814;SDS011;9031;50.974;11.330;2023-04-15T13:01:36;3.10;;;2.80;;
17814;SDS011;9031;50.974;11.330;2023-04-15T13:04:02;7.33;;;6.50;;
17814;SDS011;9031;50.974;11.330;2023-04-15T13:06:28;3.03;;;2.73;;
17814;SDS011;9031;50.974;11.330;2023-04-15T13:08:54;3.63;;;3.33;;
17814;SDS011;9031;50.974;11.330;2023-04-15T13:11:21;4.63;;;4.23;;
17814;SDS011;9031;50.974;11.330;2023-04-15T13:13:46;3.30;;;3.00;;
17814;SDS011;9031;50.974;11.330;2023-04-15T13:16:12;3.20;;;3.00;;
17814;SDS011;9031;50.974;11.330;2023-04-15T13:18:38;3.33;;;3.03;;
17814;SDS011;9031;50.974;11.330;2023-04-15T13:21:03;3.20;;;3.00;;
17814;SDS011;9031;50.974;11.330;2023-04-15T13:23:31;5.00;;;4.60;;
17814;SDS011;9031;50.974;11.330;2023-04-15T13:25:57;2.90;;;2.70;;
17814;SDS011;9031;50.974;11.330;2023-04-15T13:28:22;3.37;;;3.03;;
17814;SDS011;9031;50.974;11.330;2023-04-15T13:30:48;2.30;;;2.20;;
17814;SDS011;9031;50.974;11.330;2023-04-15T13:33:13;4.20;;;3.80;;
17814;SDS011;9031;50.974;11.330;2023-04-15T13:35:41;2.40;;;2.20;;
17814;SDS011;9031;50.974;11.330;2023-04-15T13:38:06;1.80;;;1.70;;
17814;SDS011;9031;50.974;11.330;2023-04-15T13:40:32;7.70;;;7.00;;
17814;SDS011;9031;50.974;11.330;2023-04-15T13:42:57;8.27;;;7.37;;
17814;SDS011;9031;50.974;11.330;2023-04-15T13:45:24;3.00;;;2.70;;
17814;SDS011;9031;50.974;11.330;2023-04-15T13:47:50;2.63;;;2.20;;
17814;SDS011;9031;50.974;11.330;2023-04-15T13:50:15;5.47;;;2.53;;
17814;SDS011;9031;50.974;11.330;2023-04-15T13:52:41;2.70;;;2.50;;
17814;SDS011;9031;50.974;11.330;2023-04-15T13:55:06;3.17;;;2.47;;
17814;SDS011;9031;50.974;11.330;2023-04-15T13:57:32;3.00;;;2.70;;
17814;SDS011;9031;50.974;11.330;2023-04-15T13:59:58;3.77;;;3.47;;
17814;SDS011;9031;50.974;11.330;2023-04-15T14:02:23;3.97;;;3.60;;
17814;SDS011;9031;50.974;11.330;2023-04-15T14:04:49;3.77;;;3.43;;
17814;SDS011;9031;50.974;11.330;2023-04-15T14:07:15;3.90;;;3.47;;
17814;SDS011;9031;50.974;11.330;2023-04-15T14:09:41;3.53;;;3.23;;
17814;SDS011;9031;50.974;11.330;2023-04-15T14:12:07;3.97;;;3.67;;
17814;SDS011;9031;50.974;11.330;2023-04-15T14:14:33;3.87;;;3.57;;
17814;SDS011;9031;50.974;11.330;2023-04-15T14:16:59;3.97;;;3.60;;
17814;SDS011;9031;50.974;11.330;2023-04-15T14:19:24;3.90;;;3.60;;
17814;SDS011;9031;50.974;11.330;2023-04-15T14:21:50;3.33;;;3.13;;
17814;SDS011;9031;50.974;11.330;2023-04-15T14:24:16;3.87;;;3.50;;
17814;SDS011;9031;50.974;11.330;2023-04-15T14:26:42;4.30;;;3.83;;
17814;SDS011;9031;50.974;11.330;2023-04-15T14:29:08;3.43;;;3.20;;
17814;SDS011;9031;50.974;11.330;2023-04-15T14:31:34;4.87;;;3.80;;
17814;SDS011;9031;50.974;11.330;2023-04-15T14:33:59;4.90;;;4.40;;
17814;SDS011;9031;50.974;11.330;2023-04-15T14:36:25;4.67;;;4.27;;
17814;SDS011;9031;50.974;11.330;2023-04-15T14:38:51;4.67;;;4.27;;
17814;SDS011;9031;50.974;11.330;2023-04-15T14:41:17;5.03;;;4.53;;
17814;SDS011;9031;50.974;11.330;2023-04-15T14:43:42;5.10;;;4.60;;
17814;SDS011;9031;50.974;11.330;2023-04-15T14:46:08;5.43;;;4.93;;
17814;SDS011;9031;50.974;11.330;2023-04-15T14:48:34;4.90;;;4.40;;
17814;SDS011;9031;50.974;11.330;2023-04-15T14:51:00;5.00;;;4.50;;
17814;SDS011;9031;50.974;11.330;2023-04-15T14:53:26;5.23;;;4.73;;